Boston, Massachusetts
Traffic Map
Current Weather Conditions
Boston, Massachusetts
Broken Clouds
Broken Clouds
25°
Feels Like: 26°
Wind Chill: 25° Ceiling: 8000
Heat Index: 26° Visibility: 10mi
Dew Point: 19° Wind: 5mph
Humidity: 69% Direction: 80° (E)
Pressure: 29.78in Gusts: 0mph
Raw Report DataKBOS 240354Z 08004KT 10SM SCT025 BKN080 25/19 A2978 RMK AO2 SLP084 T02500189
Traffic Incident Summary
Active as of:
Severity:
Category:
InformationThere was an issue retrieving the traffic information for this location. Please try a different location or try again shortly.
Advertisements
Track Severe Weather on mobile